Time;durP1;ratioP1;P1;durP2;ratioP2;P2;SDS_P1;SDS_P2;PMS_P1;PMS_P2;Temp;Humidity;BMP_temperature;BMP_pressure;BME280_temperature;BME280_humidity;BME280_pressure;Samples;Min_cycle;Max_cycle;Signal;HPM_P1;HPM_P2
2022/10/21 00:00:26;;;;;;;42.33;31.48;;;11.30;99.90;;;;;;5158742;27;20628;-42
2022/10/21 00:02:52;;;;;;;45.90;30.48;;;11.30;99.90;;;;;;5158958;27;20442;-50
2022/10/21 00:05:18;;;;;;;44.95;31.48;;;11.20;99.90;;;;;;5127299;27;20050;-52
2022/10/21 00:07:43;;;;;;;49.03;32.55;;;11.30;99.90;;;;;;5158467;27;20132;-48
2022/10/21 00:10:09;;;;;;;51.35;34.30;;;11.20;99.90;;;;;;5158183;27;20300;-51
2022/10/21 00:12:35;;;;;;;43.05;32.15;;;11.20;99.90;;;;;;5157535;27;20129;-50
2022/10/21 00:15:04;;;;;;;63.58;35.05;;;11.10;99.90;;;;;;5139678;27;20050;-44
2022/10/21 00:17:29;;;;;;;46.35;31.70;;;11.10;99.90;;;;;;5145931;27;20122;-47
2022/10/21 00:19:55;;;;;;;45.65;30.65;;;11.00;99.90;;;;;;5158243;27;20046;-50
2022/10/21 00:22:21;;;;;;;50.50;31.48;;;11.00;99.90;;;;;;5158088;27;20038;-47
2022/10/21 00:24:46;;;;;;;42.58;30.70;;;11.00;99.90;;;;;;5158928;27;20050;-46
2022/10/21 00:27:12;;;;;;;45.72;32.35;;;10.90;99.90;;;;;;5158546;27;20038;-56
2022/10/21 00:29:38;;;;;;;54.88;33.47;;;10.90;99.90;;;;;;5158841;27;20046;-52
2022/10/21 00:32:03;;;;;;;59.28;34.55;;;11.00;99.90;;;;;;5158568;27;20539;-51
2022/10/21 00:34:30;;;;;;;44.72;30.77;;;10.90;99.90;;;;;;5158573;27;20067;-52
2022/10/21 00:36:56;;;;;;;50.72;32.70;;;10.90;99.90;;;;;;5158791;27;20622;-45
2022/10/21 00:39:22;;;;;;;56.45;33.97;;;10.80;99.90;;;;;;5152085;27;20403;-45
2022/10/21 00:41:47;;;;;;;52.13;34.10;;;10.80;99.90;;;;;;5130238;27;20510;-49
2022/10/21 00:44:14;;;;;;;52.20;34.08;;;11.00;99.90;;;;;;5138611;27;20046;-54
2022/10/21 00:46:43;;;;;;;47.03;30.80;;;10.90;99.90;;;;;;5157790;27;20404;-48
2022/10/21 00:49:43;;;;;;;49.65;31.75;;;10.80;99.90;;;;;;5133079;27;20058;-46
2022/10/21 00:52:17;;;;;;;51.75;33.97;;;10.80;99.90;;;;;;5128361;27;20159;-53
2022/10/21 00:54:43;;;;;;;48.85;32.30;;;10.80;99.90;;;;;;5139931;27;20050;-51
2022/10/21 00:57:10;;;;;;;49.83;33.38;;;10.80;99.90;;;;;;5156075;27;20106;-51
2022/10/21 00:59:40;;;;;;;55.00;32.97;;;10.90;99.90;;;;;;5140608;27;20110;-46
2022/10/21 01:02:07;;;;;;;57.55;34.85;;;10.80;99.90;;;;;;5157797;27;20129;-52
2022/10/21 01:04:32;;;;;;;44.65;32.45;;;10.90;99.90;;;;;;5158767;27;20518;-49
2022/10/21 01:07:00;;;;;;;53.95;33.50;;;10.90;99.90;;;;;;5153543;27;20046;-54
2022/10/21 01:09:27;;;;;;;48.22;31.73;;;10.90;99.90;;;;;;5157046;27;20492;-49
2022/10/21 01:11:53;;;;;;;43.97;30.73;;;10.80;99.90;;;;;;5138443;27;20331;-46
2022/10/21 01:14:25;;;;;;;47.42;32.03;;;10.90;99.90;;;;;;5157960;27;20068;-47
2022/10/21 01:17:15;;;;;;;48.90;33.53;;;10.80;99.90;;;;;;5151079;27;20046;-45
2022/10/21 01:19:40;;;;;;;67.35;35.33;;;11.00;99.90;;;;;;5155066;27;20465;-48
2022/10/21 01:22:15;;;;;;;43.20;30.42;;;10.90;99.90;;;;;;5157670;27;20582;-46
2022/10/21 01:24:49;;;;;;;55.35;35.60;;;11.00;99.90;;;;;;5138727;27;20524;-47
2022/10/21 01:27:43;;;;;;;56.70;35.55;;;10.90;99.90;;;;;;5157177;27;20054;-46
2022/10/21 01:30:50;;;;;;;69.30;36.78;;;10.90;99.90;;;;;;5152357;27;20082;-50
2022/10/21 01:33:56;;;;;;;61.63;36.22;;;11.10;99.90;;;;;;5051890;28;20084;-48
2022/10/21 01:36:25;;;;;;;56.10;35.45;;;11.10;99.90;;;;;;5052158;28;20116;-50
2022/10/21 01:39:02;;;;;;;62.22;36.92;;;11.30;99.90;;;;;;5051990;28;20471;-48
2022/10/21 01:41:49;;;;;;;56.85;37.25;;;11.30;99.90;;;;;;5051413;28;20461;-47
2022/10/21 01:44:28;;;;;;;60.13;34.95;;;11.40;99.90;;;;;;5051489;28;20549;-45
2022/10/21 01:47:05;;;;;;;59.03;39.03;;;11.40;99.90;;;;;;5035216;28;20644;-52
2022/10/21 01:49:42;;;;;;;54.67;37.00;;;11.40;99.90;;;;;;5051660;28;20056;-52
2022/10/21 01:52:09;;;;;;;60.15;36.60;;;11.50;99.90;;;;;;5050963;28;20071;-46
2022/10/21 01:54:39;;;;;;;69.13;40.25;;;11.50;99.90;;;;;;5052333;28;20056;-44
2022/10/21 01:57:07;;;;;;;63.72;39.47;;;11.70;99.90;;;;;;5051174;28;20048;-53
2022/10/21 01:59:33;;;;;;;51.95;36.60;;;11.70;99.90;;;;;;5032941;28;20610;-50
2022/10/21 02:02:03;;;;;;;65.47;40.78;;;11.80;99.90;;;;;;5050562;28;20281;-52
2022/10/21 02:04:32;;;;;;;51.90;35.90;;;11.80;99.90;;;;;;5112023;27;20559;-44
2022/10/21 02:06:57;;;;;;;66.30;39.28;;;11.80;99.90;;;;;;5136674;27;20126;-44
2022/10/21 02:09:23;;;;;;;64.75;39.17;;;11.90;99.90;;;;;;5139067;27;20046;-47
2022/10/21 02:11:53;;;;;;;60.03;40.00;;;11.90;99.90;;;;;;5136336;27;20046;-54
2022/10/21 02:14:29;;;;;;;76.30;41.80;;;12.00;99.90;;;;;;5157010;27;20054;-49
2022/10/21 02:16:56;;;;;;;68.78;39.42;;;12.10;99.90;;;;;;5131893;27;20054;-56
2022/10/21 02:19:22;;;;;;;59.92;37.35;;;12.10;99.90;;;;;;5150521;27;20045;-52
2022/10/21 02:21:52;;;;;;;57.58;37.92;;;12.20;99.90;;;;;;5156522;27;20265;-47
2022/10/21 02:24:26;;;;;;;72.88;40.97;;;12.10;99.90;;;;;;5137846;27;20077;-51
2022/10/21 02:26:52;;;;;;;58.25;38.28;;;12.10;99.90;;;;;;5156895;27;20075;-58
2022/10/21 02:29:23;;;;;;;62.42;39.83;;;12.20;99.90;;;;;;5136379;27;20129;-50
2022/10/21 02:32:07;;;;;;;79.32;42.30;;;12.20;99.90;;;;;;5156585;27;20046;-46
2022/10/21 02:35:05;;;;;;;79.25;40.40;;;12.20;99.90;;;;;;5151063;27;20043;-51
2022/10/21 02:37:37;;;;;;;66.57;39.30;;;12.30;99.90;;;;;;5152772;27;20042;-47
2022/10/21 02:40:12;;;;;;;74.40;40.15;;;12.20;99.90;;;;;;5138761;27;20057;-51
2022/10/21 02:42:46;;;;;;;78.75;40.90;;;12.30;99.90;;;;;;5155963;27;20507;-45
2022/10/21 02:45:12;;;;;;;78.38;40.25;;;12.20;99.90;;;;;;5142532;27;20117;-51
2022/10/21 02:47:39;;;;;;;67.82;38.35;;;12.30;99.90;;;;;;5149275;27;20047;-47
2022/10/21 02:50:05;;;;;;;67.90;36.53;;;12.30;99.90;;;;;;5118215;27;20058;-54
2022/10/21 02:52:31;;;;;;;68.65;37.00;;;12.40;99.90;;;;;;5156562;27;20535;-52
2022/10/21 02:54:56;;;;;;;73.03;37.33;;;12.50;99.90;;;;;;5155637;27;20169;-50
2022/10/21 02:57:22;;;;;;;51.13;31.55;;;12.50;99.90;;;;;;5142255;27;20042;-58
2022/10/21 02:59:48;;;;;;;73.22;35.92;;;12.50;99.90;;;;;;5136842;27;20061;-49
2022/10/21 03:02:13;;;;;;;62.65;33.42;;;12.50;99.90;;;;;;5148499;27;20073;-49
2022/10/21 03:04:39;;;;;;;59.67;32.63;;;12.70;99.90;;;;;;5149796;27;20122;-49
2022/10/21 03:07:05;;;;;;;55.45;31.05;;;12.80;99.90;;;;;;5156361;27;20557;-51
2022/10/21 03:09:30;;;;;;;53.88;32.03;;;12.80;99.90;;;;;;5158554;27;20042;-49
2022/10/21 03:11:56;;;;;;;54.75;30.90;;;12.80;99.90;;;;;;5159905;27;20571;-51
2022/10/21 03:14:22;;;;;;;56.78;32.33;;;12.80;99.90;;;;;;5145501;27;20508;-54
2022/10/21 03:16:47;;;;;;;52.50;30.50;;;12.80;99.90;;;;;;5146935;27;20039;-42
2022/10/21 03:19:13;;;;;;;56.10;30.63;;;12.80;99.90;;;;;;5159377;27;20046;-46
2022/10/21 03:21:38;;;;;;;56.13;31.98;;;12.80;99.90;;;;;;5159491;27;20575;-46
2022/10/21 03:24:04;;;;;;;63.40;32.08;;;12.70;99.90;;;;;;5159992;27;20046;-52
2022/10/21 03:26:30;;;;;;;52.35;31.48;;;12.70;99.90;;;;;;5145812;27;20119;-43
2022/10/21 03:28:55;;;;;;;56.90;32.15;;;12.70;99.90;;;;;;5159546;27;20050;-53
2022/10/21 03:31:21;;;;;;;47.33;27.83;;;12.70;99.90;;;;;;5159298;27;20097;-58
2022/10/21 03:33:46;;;;;;;55.58;31.55;;;12.70;99.90;;;;;;5123679;27;20061;-49
2022/10/21 03:36:12;;;;;;;46.97;29.00;;;12.70;99.90;;;;;;5145468;27;20042;-54
2022/10/21 03:38:38;;;;;;;45.92;29.83;;;12.70;99.90;;;;;;5159584;27;20495;-51
2022/10/21 03:41:03;;;;;;;69.38;33.28;;;12.60;99.90;;;;;;5160099;27;20145;-51
2022/10/21 03:43:29;;;;;;;56.08;29.73;;;12.60;99.90;;;;;;5158572;27;20050;-54
2022/10/21 03:45:54;;;;;;;61.15;31.23;;;12.60;99.90;;;;;;5141339;27;20701;-47
2022/10/21 03:48:20;;;;;;;47.72;29.73;;;12.60;99.90;;;;;;5141539;27;20574;-52
2022/10/21 03:50:46;;;;;;;48.35;28.60;;;12.50;99.90;;;;;;5140470;27;20046;-49
2022/10/21 03:53:11;;;;;;;68.63;34.58;;;12.50;99.90;;;;;;5147397;27;20047;-49
2022/10/21 03:55:37;;;;;;;61.88;32.83;;;12.50;99.90;;;;;;5139676;27;20050;-52
2022/10/21 03:58:03;;;;;;;52.33;30.83;;;12.60;99.90;;;;;;5158313;27;20475;-54
2022/10/21 04:00:29;;;;;;;68.43;35.03;;;12.60;99.90;;;;;;5120745;27;20042;-47
2022/10/21 04:02:54;;;;;;;72.72;34.25;;;12.60;99.90;;;;;;5131926;27;20109;-53
2022/10/21 04:05:20;;;;;;;73.68;35.58;;;12.50;99.90;;;;;;5158814;27;20468;-44
2022/10/21 04:07:46;;;;;;;54.92;33.88;;;12.60;99.90;;;;;;5158747;27;20043;-55
2022/10/21 04:10:11;;;;;;;77.85;37.85;;;12.50;99.90;;;;;;5154341;27;20046;-48
2022/10/21 04:12:37;;;;;;;51.83;32.85;;;12.60;99.90;;;;;;5150365;27;20121;-57
2022/10/21 04:15:05;;;;;;;71.68;36.00;;;12.60;99.90;;;;;;5145811;27;20054;-49
2022/10/21 04:17:30;;;;;;;64.57;35.35;;;12.60;99.90;;;;;;5158460;27;20157;-47
2022/10/21 04:19:56;;;;;;;52.50;31.05;;;12.50;99.90;;;;;;5158508;27;20046;-51
2022/10/21 04:22:22;;;;;;;65.78;35.10;;;12.40;99.90;;;;;;5159165;27;20042;-43
2022/10/21 04:24:47;;;;;;;68.05;35.35;;;12.40;99.90;;;;;;5159248;27;20053;-46
2022/10/21 04:27:13;;;;;;;71.78;36.33;;;12.40;99.90;;;;;;5158642;27;20054;-49
2022/10/21 04:29:38;;;;;;;68.88;35.45;;;12.40;99.90;;;;;;5158897;27;20555;-51
2022/10/21 04:32:04;;;;;;;60.50;32.58;;;12.30;99.90;;;;;;5158745;27;20046;-53
2022/10/21 04:34:30;;;;;;;65.60;36.25;;;12.20;99.90;;;;;;5158987;27;20046;-44
2022/10/21 04:36:55;;;;;;;64.78;35.10;;;12.20;99.90;;;;;;5159192;27;20096;-52
2022/10/21 04:39:21;;;;;;;57.92;32.50;;;12.20;99.90;;;;;;5159848;27;20510;-50
2022/10/21 04:41:48;;;;;;;74.80;37.15;;;12.20;99.90;;;;;;5158134;27;20098;-51
2022/10/21 04:44:14;;;;;;;96.15;38.55;;;12.10;99.90;;;;;;5158588;27;20472;-53
2022/10/21 04:46:40;;;;;;;68.20;36.42;;;12.10;99.90;;;;;;5158221;27;20049;-48
2022/10/21 04:49:05;;;;;;;53.17;31.58;;;12.10;99.90;;;;;;5139150;27;20148;-54
2022/10/21 04:51:31;;;;;;;55.97;34.72;;;12.20;99.90;;;;;;5157961;27;20106;-54
2022/10/21 04:53:56;;;;;;;89.00;38.80;;;12.20;99.90;;;;;;5158521;27;20050;-46
2022/10/21 04:56:22;;;;;;;74.28;37.95;;;12.20;99.90;;;;;;5146106;27;20085;-43
2022/10/21 04:58:48;;;;;;;82.18;38.70;;;12.10;99.90;;;;;;5141998;27;20057;-50
2022/10/21 05:01:13;;;;;;;79.00;38.63;;;12.00;99.90;;;;;;5157569;27;20226;-51
2022/10/21 05:03:39;;;;;;;92.18;41.58;;;12.10;99.90;;;;;;5133980;27;20501;-48
2022/10/21 05:06:04;;;;;;;73.03;39.53;;;12.00;99.90;;;;;;5150126;27;20453;-51
2022/10/21 05:08:30;;;;;;;95.28;41.55;;;12.10;99.90;;;;;;5157752;27;20340;-49
2022/10/21 05:10:58;;;;;;;88.72;40.83;;;11.90;99.90;;;;;;5139448;27;20933;-51
2022/10/21 05:13:23;;;;;;;96.35;43.80;;;12.00;99.90;;;;;;5157180;27;20389;-48
2022/10/21 05:15:49;;;;;;;93.13;42.55;;;12.00;99.90;;;;;;5139172;27;20492;-43
2022/10/21 05:18:14;;;;;;;89.78;42.38;;;12.10;99.90;;;;;;5157302;27;20381;-51
2022/10/21 05:20:41;;;;;;;95.65;42.47;;;12.10;99.90;;;;;;5158687;27;20038;-51
2022/10/21 05:23:07;;;;;;;100.97;44.65;;;12.10;99.90;;;;;;5138425;27;20474;-54
2022/10/21 05:25:32;;;;;;;100.43;43.10;;;12.00;99.90;;;;;;5157889;27;20046;-49
2022/10/21 05:27:58;;;;;;;96.05;43.25;;;12.00;99.90;;;;;;5157079;27;20522;-51
2022/10/21 05:30:23;;;;;;;340.85;58.88;;;12.00;99.90;;;;;;5157870;27;20412;-47
2022/10/21 05:32:49;;;;;;;111.97;43.60;;;12.10;99.90;;;;;;5157317;27;20470;-52
2022/10/21 05:35:15;;;;;;;108.70;43.35;;;12.00;99.90;;;;;;5139310;27;20307;-51
2022/10/21 05:37:40;;;;;;;115.82;45.80;;;11.90;99.90;;;;;;5138150;27;20496;-57
2022/10/21 05:40:07;;;;;;;87.47;41.20;;;11.80;99.90;;;;;;5157903;27;20050;-50
2022/10/21 05:42:32;;;;;;;129.13;45.47;;;11.90;99.90;;;;;;5156773;27;20042;-50
2022/10/21 05:44:58;;;;;;;98.13;42.72;;;11.90;99.90;;;;;;5157530;27;20513;-47
2022/10/21 05:47:23;;;;;;;88.03;40.70;;;11.80;99.90;;;;;;5157222;27;20046;-49
2022/10/21 05:49:49;;;;;;;125.72;46.45;;;11.70;99.90;;;;;;5139142;27;20102;-47
2022/10/21 05:52:15;;;;;;;118.30;45.30;;;11.80;99.90;;;;;;5156784;27;20149;-43
2022/10/21 05:54:41;;;;;;;119.28;46.75;;;11.80;99.90;;;;;;5139270;27;20805;-50
2022/10/21 05:57:06;;;;;;;121.25;48.22;;;11.70;99.90;;;;;;5137643;27;20540;-57
2022/10/21 05:59:32;;;;;;;114.75;46.42;;;11.80;99.90;;;;;;5150640;27;20077;-51
2022/10/21 06:01:58;;;;;;;105.38;45.97;;;11.80;99.90;;;;;;5137653;27;20759;-44
2022/10/21 06:04:23;;;;;;;117.10;47.88;;;11.90;99.90;;;;;;5145230;27;20047;-51
2022/10/21 06:06:49;;;;;;;104.22;46.80;;;11.80;99.90;;;;;;5155591;27;20042;-45
2022/10/21 06:09:14;;;;;;;110.22;47.70;;;12.00;99.90;;;;;;5138453;27;20082;-46
2022/10/21 06:11:40;;;;;;;110.07;49.58;;;12.00;99.90;;;;;;5137334;27;20472;-43
2022/10/21 06:14:06;;;;;;;110.45;49.72;;;12.10;99.90;;;;;;5138622;27;20541;-49
2022/10/21 06:16:34;;;;;;;116.75;50.67;;;12.10;99.90;;;;;;5138157;27;20083;-49
2022/10/21 06:19:00;;;;;;;95.63;47.70;;;12.30;99.90;;;;;;5156648;27;20046;-46
2022/10/21 06:21:26;;;;;;;103.13;46.70;;;12.40;99.90;;;;;;5156634;27;20111;-53
2022/10/21 06:23:53;;;;;;;92.60;45.92;;;12.30;99.90;;;;;;5157586;27;20483;-51
2022/10/21 06:26:18;;;;;;;87.05;44.70;;;12.40;99.90;;;;;;5156316;27;20047;-50
2022/10/21 06:28:44;;;;;;;86.88;45.92;;;12.40;99.90;;;;;;5156978;27;20057;-50
2022/10/21 06:31:13;;;;;;;85.97;46.13;;;12.40;99.90;;;;;;5156432;27;20831;-46
2022/10/21 06:33:38;;;;;;;88.80;45.92;;;12.40;99.90;;;;;;5157112;27;20050;-52
2022/10/21 06:36:04;;;;;;;98.60;45.97;;;12.50;99.90;;;;;;5157053;27;20079;-49
2022/10/21 06:38:31;;;;;;;99.10;46.10;;;12.60;99.90;;;;;;5150117;27;20580;-47
2022/10/21 06:41:02;;;;;;;89.57;45.90;;;12.40;99.90;;;;;;5153917;27;20042;-49
2022/10/21 06:43:28;;;;;;;92.38;45.65;;;12.50;99.90;;;;;;5158427;27;20046;-53
2022/10/21 06:46:01;;;;;;;92.85;45.38;;;12.40;99.90;;;;;;5154910;27;20114;-52
2022/10/21 06:48:27;;;;;;;90.57;44.05;;;12.40;99.90;;;;;;5153410;27;20627;-49
2022/10/21 06:51:01;;;;;;;82.68;41.60;;;12.50;99.90;;;;;;5159895;27;20045;-53
2022/10/21 06:53:27;;;;;;;93.38;44.58;;;12.40;99.90;;;;;;5158169;27;20050;-49
2022/10/21 06:56:08;;;;;;;87.72;43.25;;;12.30;99.90;;;;;;5138812;27;20041;-56
2022/10/21 06:58:35;;;;;;;85.75;42.10;;;12.30;99.90;;;;;;5146678;27;20593;-49
2022/10/21 07:01:09;;;;;;;75.20;40.65;;;12.30;99.90;;;;;;5123275;27;20057;-45
2022/10/21 07:03:34;;;;;;;78.93;40.50;;;12.40;99.90;;;;;;5157601;27;20053;-50
2022/10/21 07:06:00;;;;;;;82.90;41.95;;;12.30;99.90;;;;;;5160201;27;20046;-46
2022/10/21 07:08:28;;;;;;;88.90;43.60;;;12.50;99.90;;;;;;5157711;27;20462;-57
2022/10/21 07:10:54;;;;;;;73.40;39.05;;;12.50;99.90;;;;;;5150151;27;20035;-54
2022/10/21 07:13:21;;;;;;;83.97;42.60;;;12.40;99.90;;;;;;5136280;27;20545;-46
2022/10/21 07:15:46;;;;;;;83.22;41.63;;;12.30;99.90;;;;;;5139185;27;20471;-51
2022/10/21 07:18:12;;;;;;;84.80;41.05;;;12.30;99.90;;;;;;5137989;27;20038;-55
2022/10/21 07:20:37;;;;;;;83.70;39.80;;;12.50;99.90;;;;;;5135294;27;20659;-46
2022/10/21 07:23:03;;;;;;;83.43;41.38;;;12.40;99.90;;;;;;5141338;27;20051;-54
2022/10/21 07:25:29;;;;;;;79.72;40.67;;;12.50;99.90;;;;;;5155357;27;20504;-50
2022/10/21 07:27:55;;;;;;;72.00;38.00;;;12.50;99.90;;;;;;5149266;27;20411;-53
2022/10/21 07:30:22;;;;;;;76.47;40.30;;;12.60;99.90;;;;;;5135587;27;20054;-52
2022/10/21 07:32:47;;;;;;;80.20;40.03;;;12.50;99.90;;;;;;5158754;27;20122;-44
2022/10/21 07:35:13;;;;;;;75.43;39.28;;;12.40;99.90;;;;;;5150697;27;20073;-46
2022/10/21 07:37:39;;;;;;;72.22;38.13;;;12.40;99.90;;;;;;5140163;27;20091;-52
2022/10/21 07:40:07;;;;;;;71.05;39.17;;;12.50;99.90;;;;;;5132071;27;20466;-53
2022/10/21 07:42:33;;;;;;;73.55;36.75;;;12.50;99.90;;;;;;5157309;27;20046;-49
2022/10/21 07:45:00;;;;;;;68.05;36.90;;;12.40;99.90;;;;;;5150323;27;20533;-51
2022/10/21 07:47:26;;;;;;;70.72;37.33;;;12.60;99.90;;;;;;5144035;27;20075;-49
2022/10/21 07:49:52;;;;;;;70.30;36.95;;;12.50;99.90;;;;;;5141148;27;20460;-46
2022/10/21 07:52:17;;;;;;;74.57;37.30;;;12.60;99.90;;;;;;5152548;27;20053;-46
2022/10/21 07:54:43;;;;;;;67.97;35.75;;;12.70;99.90;;;;;;5158063;27;20046;-43
2022/10/21 07:57:09;;;;;;;63.88;35.50;;;12.60;99.90;;;;;;5132319;27;20050;-53
2022/10/21 07:59:35;;;;;;;68.82;35.60;;;12.50;99.90;;;;;;5150327;27;20584;-53
2022/10/21 08:02:01;;;;;;;66.53;35.15;;;12.60;99.90;;;;;;5152106;27;20051;-51
2022/10/21 08:04:30;;;;;;;67.45;36.90;;;12.60;99.90;;;;;;5140557;27;20038;-46
2022/10/21 08:06:57;;;;;;;60.55;35.50;;;12.70;99.90;;;;;;5152463;27;20791;-51
2022/10/21 08:09:22;;;;;;;60.33;34.78;;;12.80;99.90;;;;;;5153996;27;20038;-51
2022/10/21 08:11:48;;;;;;;53.85;33.28;;;12.70;99.90;;;;;;5138749;27;20050;-51
2022/10/21 08:14:14;;;;;;;54.97;33.53;;;12.80;99.90;;;;;;5158356;27;20348;-53
2022/10/21 08:16:40;;;;;;;54.03;31.95;;;12.80;99.90;;;;;;5144923;27;20496;-53
2022/10/21 08:19:07;;;;;;;53.58;32.80;;;12.80;99.90;;;;;;5157049;27;20050;-53
2022/10/21 08:21:33;;;;;;;55.50;33.47;;;12.90;99.90;;;;;;5148123;27;20046;-47
2022/10/21 08:24:02;;;;;;;52.85;31.27;;;12.90;99.90;;;;;;5156315;27;20046;-53
2022/10/21 08:26:28;;;;;;;54.53;32.83;;;12.90;99.90;;;;;;5157891;27;20049;-48
2022/10/21 08:28:54;;;;;;;52.90;32.30;;;13.00;99.90;;;;;;5159157;27;20069;-47
2022/10/21 08:31:21;;;;;;;47.78;32.40;;;13.10;99.90;;;;;;5138883;27;20538;-49
2022/10/21 08:33:48;;;;;;;50.92;30.08;;;12.90;99.90;;;;;;5159367;27;20053;-45
2022/10/21 08:36:20;;;;;;;48.72;30.55;;;13.10;99.90;;;;;;5158774;27;20061;-53
2022/10/21 08:38:46;;;;;;;43.03;29.83;;;13.20;99.90;;;;;;5158097;27;20157;-55
2022/10/21 08:41:23;;;;;;;46.88;29.38;;;13.20;99.90;;;;;;5157485;27;20069;-50
2022/10/21 08:43:51;;;;;;;48.40;28.52;;;13.30;99.90;;;;;;5158263;27;20078;-50
2022/10/21 08:46:22;;;;;;;44.40;29.15;;;13.30;99.90;;;;;;5138958;27;20058;-49
2022/10/21 08:48:59;;;;;;;39.17;28.45;;;13.40;99.90;;;;;;5158155;27;20207;-46
2022/10/21 08:51:36;;;;;;;43.90;28.70;;;13.40;99.90;;;;;;5157974;27;20050;-55
2022/10/21 08:54:11;;;;;;;41.88;28.60;;;13.60;99.90;;;;;;5158428;27;20054;-46
2022/10/21 08:56:36;;;;;;;38.45;27.52;;;13.60;99.90;;;;;;5157971;27;20042;-56
2022/10/21 08:59:02;;;;;;;40.50;26.95;;;13.70;99.90;;;;;;5159231;27;20061;-44
2022/10/21 09:01:54;;;;;;;37.03;25.60;;;13.70;99.90;;;;;;5157947;27;20054;-50
2022/10/21 09:04:28;;;;;;;37.13;23.83;;;13.80;99.90;;;;;;5052735;28;20056;-50
2022/10/21 09:06:59;;;;;;;37.00;24.55;;;14.00;99.90;;;;;;5016596;28;20061;-49
2022/10/21 09:09:33;;;;;;;34.70;24.35;;;14.10;99.90;;;;;;5032600;28;20140;-45
2022/10/21 09:12:19;;;;;;;36.65;24.50;;;14.10;99.90;;;;;;5038747;28;20056;-48
2022/10/21 09:14:56;;;;;;;30.40;22.65;;;14.10;99.90;;;;;;5038299;28;20325;-53
2022/10/21 09:17:56;;;;;;;30.05;22.20;;;14.30;99.90;;;;;;5051548;28;20071;-54
2022/10/21 09:20:26;;;;;;;27.00;22.73;;;14.20;99.90;;;;;;4992725;28;20987;-49
2022/10/21 09:23:21;;;;;;;27.27;20.58;;;14.30;99.90;;;;;;4991860;28;20339;-53
2022/10/21 09:26:12;;;;;;;28.10;20.73;;;14.40;99.90;;;;;;4992593;28;20068;-46
2022/10/21 09:28:38;;;;;;;27.38;20.02;;;14.50;99.90;;;;;;4991917;28;20133;-46
2022/10/21 09:31:14;;;;;;;26.73;20.90;;;14.40;99.90;;;;;;4992330;28;20450;-44
2022/10/21 09:33:45;;;;;;;27.25;20.70;;;14.50;99.90;;;;;;4976442;28;20058;-53
2022/10/21 09:36:14;;;;;;;26.17;20.45;;;14.40;99.90;;;;;;4992770;28;20050;-48
2022/10/21 09:39:12;;;;;;;29.13;20.00;;;14.50;99.90;;;;;;4991897;28;20061;-50
2022/10/21 09:41:43;;;;;;;27.42;20.05;;;14.60;99.90;;;;;;5050747;28;20091;-46
2022/10/21 09:44:16;;;;;;;24.70;20.25;;;14.60;99.90;;;;;;5092203;28;20139;-51
2022/10/21 09:46:45;;;;;;;26.55;20.17;;;14.50;99.90;;;;;;5091744;28;20162;-53
2022/10/21 09:49:31;;;;;;;26.25;19.38;;;14.70;99.90;;;;;;5092359;28;20162;-44
2022/10/21 09:51:59;;;;;;;27.05;20.35;;;14.60;99.90;;;;;;5091382;28;20170;-46
2022/10/21 09:54:32;;;;;;;21.88;18.73;;;14.70;99.90;;;;;;5088721;28;20044;-50
2022/10/21 09:57:04;;;;;;;24.40;18.83;;;14.60;99.90;;;;;;5103147;27;20054;-52
2022/10/21 09:59:31;;;;;;;25.05;18.40;;;14.70;99.90;;;;;;5157183;27;20231;-51
2022/10/21 10:02:06;;;;;;;23.42;18.33;;;14.70;99.90;;;;;;5156359;27;20058;-53
2022/10/21 10:04:34;;;;;;;20.83;18.63;;;14.90;99.90;;;;;;5138759;27;20050;-49
2022/10/21 10:07:19;;;;;;;25.50;18.95;;;14.80;99.90;;;;;;5155850;27;20592;-47
2022/10/21 10:09:47;;;;;;;21.98;17.38;;;14.80;99.90;;;;;;5156358;27;20101;-47
2022/10/21 10:12:15;;;;;;;23.10;17.48;;;15.00;99.90;;;;;;5147133;27;20054;-52
2022/10/21 10:14:43;;;;;;;22.10;17.30;;;14.90;99.90;;;;;;5152909;27;20473;-48
2022/10/21 10:17:27;;;;;;;21.13;17.55;;;15.00;99.90;;;;;;5156271;27;20046;-44
2022/10/21 10:20:02;;;;;;;21.10;17.58;;;15.00;99.90;;;;;;5156918;27;20046;-49
2022/10/21 10:22:49;;;;;;;28.75;17.48;;;15.00;99.90;;;;;;5157016;27;20050;-53
2022/10/21 10:25:17;;;;;;;20.85;16.52;;;15.00;99.90;;;;;;5096302;27;20054;-48
2022/10/21 10:28:08;;;;;;;23.98;17.33;;;15.10;99.90;;;;;;5154347;27;20497;-53
2022/10/21 10:30:56;;;;;;;25.73;16.40;;;15.10;99.90;;;;;;5148009;27;20056;-51
2022/10/21 10:33:26;;;;;;;18.13;14.20;;;15.10;99.90;;;;;;5145301;27;20512;-47
2022/10/21 10:35:54;;;;;;;20.75;16.00;;;15.20;99.90;;;;;;5143060;27;20046;-48
2022/10/21 10:38:31;;;;;;;20.75;15.18;;;15.20;99.90;;;;;;5155617;27;20046;-45
2022/10/21 10:41:09;;;;;;;21.35;15.90;;;15.30;99.90;;;;;;5136335;27;20140;-54
2022/10/21 10:43:48;;;;;;;22.42;15.70;;;15.40;99.90;;;;;;5141738;27;20077;-45
2022/10/21 10:46:27;;;;;;;18.90;13.88;;;15.40;99.90;;;;;;5152777;27;20273;-57
2022/10/21 10:48:56;;;;;;;18.05;13.98;;;15.40;99.90;;;;;;5154868;27;20045;-49
2022/10/21 10:51:29;;;;;;;18.58;13.38;;;15.50;99.90;;;;;;5143523;27;20396;-45
2022/10/21 10:54:05;;;;;;;18.08;12.65;;;15.40;99.90;;;;;;5103816;27;20525;-48
2022/10/21 10:56:34;;;;;;;16.05;12.50;;;15.40;99.90;;;;;;5152760;27;20577;-53
2022/10/21 10:59:31;;;;;;;16.35;13.93;;;15.40;99.90;;;;;;5131913;27;20057;-46
2022/10/21 11:02:04;;;;;;;15.40;12.20;;;15.40;99.90;;;;;;5133446;27;20139;-51
2022/10/21 11:04:35;;;;;;;19.63;13.25;;;15.40;99.90;;;;;;5147750;27;20085;-56
2022/10/21 11:07:28;;;;;;;16.60;12.70;;;15.50;99.90;;;;;;5089226;27;20060;-53
2022/10/21 11:10:02;;;;;;;14.77;12.50;;;15.40;99.90;;;;;;5142169;27;20483;-52
2022/10/21 11:12:27;;;;;;;19.02;12.57;;;15.50;99.90;;;;;;5135992;27;20070;-51
2022/10/21 11:14:56;;;;;;;17.50;12.38;;;15.50;99.90;;;;;;5137192;27;20054;-46
2022/10/21 11:17:29;;;;;;;16.67;11.68;;;15.50;99.90;;;;;;5133318;27;20035;-47
2022/10/21 11:20:21;;;;;;;20.25;13.02;;;15.50;99.90;;;;;;5122490;27;20137;-50
2022/10/21 11:23:05;;;;;;;15.02;12.10;;;15.50;99.90;;;;;;5134266;27;20062;-48
2022/10/21 11:26:01;;;;;;;16.05;12.18;;;15.60;99.90;;;;;;5146505;27;20050;-45
2022/10/21 11:28:37;;;;;;;14.55;11.20;;;15.50;99.90;;;;;;5126476;27;20059;-53
2022/10/21 11:31:29;;;;;;;16.55;12.43;;;15.60;99.90;;;;;;5157074;27;20042;-47
2022/10/21 11:34:18;;;;;;;15.32;11.23;;;15.60;99.90;;;;;;5146969;27;20404;-54
2022/10/21 11:36:49;;;;;;;56.28;24.40;;;15.60;99.90;;;;;;5148991;27;20490;-48
2022/10/21 11:39:39;;;;;;;18.83;12.13;;;15.70;99.90;;;;;;5141593;27;20058;-53
2022/10/21 11:42:18;;;;;;;19.10;11.32;;;15.80;99.90;;;;;;5141670;27;20049;-52
2022/10/21 11:45:10;;;;;;;18.67;12.10;;;15.90;99.90;;;;;;5160467;27;20497;-49
2022/10/21 11:47:59;;;;;;;68.93;30.23;;;15.80;99.90;;;;;;5159956;27;20045;-45
2022/10/21 11:50:31;;;;;;;13.95;11.30;;;15.90;99.90;;;;;;5160340;27;20046;-51
2022/10/21 11:53:18;;;;;;;18.73;10.77;;;15.70;99.90;;;;;;5142073;27;20169;-53
2022/10/21 11:56:05;;;;;;;15.27;11.25;;;15.80;99.90;;;;;;5154970;27;20058;-49
2022/10/21 11:58:52;;;;;;;15.85;10.70;;;15.80;99.90;;;;;;5138609;27;20050;-57
2022/10/21 12:01:22;;;;;;;14.18;10.65;;;15.80;99.90;;;;;;5160507;27;20038;-44
2022/10/21 12:04:08;;;;;;;16.02;10.13;;;15.80;99.90;;;;;;5141997;27;20046;-45
2022/10/21 12:06:59;;;;;;;16.48;11.38;;;15.90;99.90;;;;;;5160623;27;20045;-52
2022/10/21 12:09:52;;;;;;;16.77;10.88;;;15.80;99.90;;;;;;5142205;27;20058;-51
2022/10/21 12:12:38;;;;;;;15.73;10.05;;;15.90;99.90;;;;;;5150088;27;20267;-46
2022/10/21 12:15:40;;;;;;;11.98;10.50;;;15.90;99.90;;;;;;5142716;27;20061;-52
2022/10/21 12:18:13;;;;;;;17.88;11.63;;;15.90;99.90;;;;;;5054147;28;20469;-52
2022/10/21 12:20:39;;;;;;;;;;;15.90;99.90;;;;;;5053427;28;20059;-50
2022/10/21 12:23:06;;;;;;;17.67;11.10;;;16.00;99.90;;;;;;5042329;28;19924;-53
2022/10/21 12:25:50;;;;;;;15.55;11.18;;;16.00;99.90;;;;;;5027609;28;20129;-47
2022/10/21 12:28:42;;;;;;;20.63;11.68;;;16.10;99.90;;;;;;5041011;28;20536;-48
2022/10/21 12:31:31;;;;;;;15.20;10.80;;;16.00;99.90;;;;;;5024150;28;20063;-53
2022/10/21 12:33:57;;;;;;;17.50;10.77;;;16.10;99.90;;;;;;5055081;28;20052;-46
2022/10/21 12:36:22;;;;;;;15.63;11.75;;;16.10;99.90;;;;;;5054188;28;20048;-49
2022/10/21 12:38:55;;;;;;;15.43;10.65;;;16.10;99.90;;;;;;5054236;28;20048;-51
2022/10/21 12:41:29;;;;;;;14.15;10.10;;;16.10;99.90;;;;;;5052917;28;20451;-52
2022/10/21 12:44:20;;;;;;;17.30;10.57;;;16.30;99.90;;;;;;5053797;28;20161;-52